createdAt,value
2022-08-29T00:00:18.834Z,21.44
2022-08-29T00:04:22.235Z,21.44
2022-08-29T00:08:25.773Z,21.43
2022-08-29T00:12:30.170Z,21.44
2022-08-29T00:16:33.409Z,21.42
2022-08-29T00:20:37.872Z,21.37
2022-08-29T00:24:41.004Z,21.37
2022-08-29T00:28:45.579Z,21.37
2022-08-29T00:32:49.300Z,21.36
2022-08-29T00:36:53.326Z,21.34
2022-08-29T00:40:58.596Z,21.35
2022-08-29T00:45:03.283Z,21.34
2022-08-29T00:49:11.003Z,21.34
2022-08-29T00:53:17.439Z,21.35
2022-08-29T00:57:22.525Z,21.36
2022-08-29T01:01:27.111Z,21.34
2022-08-29T01:05:30.661Z,21.32
2022-08-29T01:09:36.034Z,21.26
2022-08-29T01:13:44.049Z,21.26
2022-08-29T01:17:50.056Z,21.24
2022-08-29T01:22:04.684Z,21.22
2022-08-29T01:26:12.003Z,21.22
2022-08-29T01:30:16.331Z,21.21
2022-08-29T01:34:21.152Z,21.22
2022-08-29T01:38:28.667Z,21.20
2022-08-29T01:42:36.504Z,21.20
2022-08-29T01:46:40.705Z,21.17
2022-08-29T01:50:43.782Z,21.15
2022-08-29T01:54:47.347Z,21.14
2022-08-29T01:58:53.653Z,21.12
2022-08-29T02:03:00.377Z,21.14
2022-08-29T02:07:03.745Z,21.12
2022-08-29T02:11:10.105Z,21.11
2022-08-29T02:15:14.795Z,21.11
2022-08-29T02:19:18.355Z,21.11
2022-08-29T02:23:30.458Z,21.12
2022-08-29T02:27:34.479Z,21.14
2022-08-29T02:31:40.050Z,21.11
2022-08-29T02:35:44.084Z,21.12
2022-08-29T02:39:47.296Z,21.10
2022-08-29T02:43:50.470Z,21.11
2022-08-29T02:47:54.928Z,21.10
2022-08-29T02:51:58.599Z,21.06
2022-08-29T02:56:02.232Z,21.03
2022-08-29T03:00:08.277Z,21.05
2022-08-29T03:04:12.925Z,21.02
2022-08-29T03:08:16.512Z,21.04
2022-08-29T03:12:19.765Z,21.06
2022-08-29T03:16:23.022Z,21.08
2022-08-29T03:20:27.521Z,21.08
2022-08-29T03:24:30.720Z,21.08
2022-08-29T03:28:33.783Z,21.10
2022-08-29T03:32:36.825Z,21.10
2022-08-29T03:36:41.321Z,21.06
2022-08-29T03:40:44.620Z,21.06
2022-08-29T03:44:47.906Z,21.03
2022-08-29T03:48:51.081Z,21.04
2022-08-29T03:52:55.732Z,21.05
2022-08-29T03:56:58.784Z,21.06
2022-08-29T04:01:02.723Z,21.09
2022-08-29T04:05:09.987Z,21.06
2022-08-29T04:09:14.581Z,21.09
2022-08-29T04:13:17.868Z,21.09
2022-08-29T04:17:21.165Z,21.08
2022-08-29T04:21:25.868Z,21.10
2022-08-29T04:25:37.108Z,21.12
2022-08-29T04:29:40.782Z,21.13
2022-08-29T04:33:43.888Z,21.14
2022-08-29T04:37:47.149Z,21.11
2022-08-29T04:41:51.816Z,21.11
2022-08-29T04:45:55.876Z,21.11
2022-08-29T04:49:59.022Z,21.11
2022-08-29T04:54:02.144Z,21.12
2022-08-29T04:58:06.861Z,21.13
2022-08-29T05:02:13.612Z,21.12
2022-08-29T05:06:18.487Z,21.14
2022-08-29T05:10:26.372Z,21.16
2022-08-29T05:14:31.137Z,21.13
2022-08-29T05:18:34.388Z,21.14
2022-08-29T05:22:39.326Z,21.16
2022-08-29T05:26:45.200Z,21.13
2022-08-29T05:30:49.850Z,21.14
2022-08-29T05:34:52.878Z,21.13
2022-08-29T05:38:56.153Z,21.14
2022-08-29T05:42:59.201Z,21.10
2022-08-29T05:47:04.828Z,21.11
2022-08-29T05:51:08.374Z,21.12
2022-08-29T05:55:12.156Z,21.11
2022-08-29T05:59:17.425Z,21.10
2022-08-29T06:03:21.897Z,21.12
2022-08-29T06:07:25.225Z,21.16
2022-08-29T06:11:31.190Z,21.20
2022-08-29T06:15:34.288Z,21.20
2022-08-29T06:19:39.643Z,21.22
2022-08-29T06:23:44.836Z,21.23
2022-08-29T06:27:47.934Z,21.18
2022-08-29T06:31:51.500Z,21.21
2022-08-29T06:36:05.261Z,21.23
2022-08-29T06:40:11.109Z,21.21
2022-08-29T06:44:14.509Z,21.23
2022-08-29T06:48:17.601Z,21.26
2022-08-29T06:52:22.195Z,21.27
2022-08-29T06:56:25.327Z,21.28
2022-08-29T07:00:29.863Z,21.31
2022-08-29T07:04:33.006Z,21.40
2022-08-29T07:08:43.708Z,21.45
2022-08-29T07:12:58.555Z,21.52
2022-08-29T07:17:01.662Z,21.61
2022-08-29T07:21:07.983Z,21.78
2022-08-29T07:25:12.842Z,22.03
2022-08-29T07:29:19.272Z,22.26
2022-08-29T07:33:22.592Z,22.38
2022-08-29T07:37:25.964Z,22.52
2022-08-29T07:41:30.714Z,22.68
2022-08-29T07:45:33.871Z,22.84
2022-08-29T07:49:41.734Z,23.01
2022-08-29T07:53:46.654Z,23.09
2022-08-29T07:57:53.272Z,23.09
2022-08-29T08:01:56.642Z,23.14
2022-08-29T08:06:00.724Z,23.15
2022-08-29T08:10:10.846Z,23.18
2022-08-29T08:14:15.306Z,23.17
2022-08-29T08:18:18.912Z,23.17
2022-08-29T08:22:22.061Z,23.25
2022-08-29T08:26:25.811Z,23.44
2022-08-29T08:30:34.991Z,23.63
2022-08-29T08:34:38.945Z,23.85
2022-08-29T08:38:42.407Z,23.96
2022-08-29T08:42:46.804Z,24.03
2022-08-29T08:46:53.848Z,24.16
2022-08-29T08:51:04.908Z,24.31
2022-08-29T08:55:16.116Z,24.43
2022-08-29T08:59:25.725Z,24.44
2022-08-29T09:04:04.574Z,24.60
2022-08-29T09:08:19.452Z,24.78
2022-08-29T09:12:36.368Z,24.84
2022-08-29T09:16:44.431Z,24.94
2022-08-29T09:20:49.144Z,24.99
2022-08-29T09:24:56.490Z,25.00
2022-08-29T09:29:00.060Z,25.12
2022-08-29T09:33:07.760Z,25.18
2022-08-29T09:37:24.318Z,25.20
2022-08-29T09:41:30.764Z,25.33
2022-08-29T09:45:34.338Z,25.36
2022-08-29T09:49:39.988Z,25.44
2022-08-29T09:53:44.875Z,25.47
2022-08-29T09:57:54.822Z,25.55
2022-08-29T10:02:23.715Z,25.67
2022-08-29T10:06:32.160Z,25.83
2022-08-29T10:10:37.949Z,25.88
2022-08-29T10:14:50.586Z,25.96
2022-08-29T10:18:58.847Z,25.87
2022-08-29T10:23:07.826Z,25.90
2022-08-29T10:27:24.965Z,26.03
2022-08-29T10:31:38.033Z,26.15
2022-08-29T10:35:54.388Z,26.19
2022-08-29T10:40:06.681Z,26.34
2022-08-29T10:44:25.146Z,26.49
2022-08-29T10:48:31.468Z,26.41
2022-08-29T10:52:39.751Z,26.35
2022-08-29T10:56:47.460Z,26.42
2022-08-29T11:00:58.470Z,26.46
2022-08-29T11:05:06.432Z,26.45
2022-08-29T11:09:14.679Z,26.39
2022-08-29T11:13:23.343Z,26.51
2022-08-29T11:17:33.434Z,26.70
2022-08-29T11:21:42.372Z,26.78
2022-08-29T11:25:46.285Z,26.78
2022-08-29T11:29:58.959Z,26.90
2022-08-29T11:34:22.681Z,27.05
2022-08-29T11:38:59.471Z,27.13
2022-08-29T11:43:13.663Z,27.30
2022-08-29T11:47:41.070Z,27.26
2022-08-29T11:51:46.135Z,27.27
2022-08-29T11:56:27.738Z,27.39
2022-08-29T12:00:43.084Z,27.40
2022-08-29T12:04:56.920Z,27.41
2022-08-29T12:09:13.340Z,27.51
2022-08-29T12:13:58.304Z,27.47
2022-08-29T12:18:23.789Z,27.50
2022-08-29T12:22:48.140Z,27.68
2022-08-29T12:26:51.508Z,27.74
2022-08-29T12:31:10.345Z,27.77
2022-08-29T12:35:37.110Z,27.75
2022-08-29T12:40:05.251Z,27.80
2022-08-29T12:44:13.869Z,27.80
2022-08-29T12:48:22.629Z,27.77
2022-08-29T12:52:30.500Z,27.73
2022-08-29T12:56:34.710Z,27.79
2022-08-29T13:00:37.996Z,27.88
2022-08-29T13:04:44.448Z,27.89
2022-08-29T13:08:50.121Z,27.86
2022-08-29T13:12:56.731Z,27.88
2022-08-29T13:16:59.874Z,27.85
2022-08-29T13:21:08.135Z,27.89
2022-08-29T13:25:16.676Z,27.86
2022-08-29T13:29:29.189Z,27.79
2022-08-29T13:33:35.088Z,27.77
2022-08-29T13:37:41.281Z,27.77
2022-08-29T13:41:48.924Z,27.83
2022-08-29T13:46:03.578Z,27.83
2022-08-29T13:50:09.850Z,27.82
2022-08-29T13:54:13.125Z,27.78
2022-08-29T13:58:22.576Z,27.68
2022-08-29T14:03:08.222Z,27.61
2022-08-29T14:07:18.109Z,27.63
2022-08-29T14:11:21.931Z,27.62
2022-08-29T14:15:26.574Z,27.63
2022-08-29T14:19:31.204Z,27.56
2022-08-29T14:23:34.721Z,27.61
2022-08-29T14:27:38.396Z,27.54
2022-08-29T14:31:43.285Z,27.56
2022-08-29T14:35:46.481Z,27.61
2022-08-29T14:39:50.416Z,27.55
2022-08-29T14:43:55.232Z,27.48
2022-08-29T14:48:00.333Z,27.49
2022-08-29T14:52:04.058Z,27.48
2022-08-29T14:56:07.681Z,27.48
2022-08-29T15:00:14.177Z,27.49
2022-08-29T15:04:18.692Z,27.43
2022-08-29T15:08:25.241Z,27.33
2022-08-29T15:12:29.102Z,27.28
2022-08-29T15:16:33.058Z,27.23
2022-08-29T15:20:40.147Z,27.22
2022-08-29T15:24:46.010Z,27.19
2022-08-29T15:28:49.277Z,27.14
2022-08-29T15:32:53.783Z,27.11
2022-08-29T15:37:00.128Z,27.04
2022-08-29T15:41:03.722Z,27.00
2022-08-29T15:45:10.337Z,26.98
2022-08-29T15:49:15.071Z,26.93
2022-08-29T15:53:23.246Z,26.92
2022-08-29T15:57:26.858Z,26.91
2022-08-29T16:01:33.078Z,26.86
2022-08-29T16:05:38.396Z,26.83
2022-08-29T16:09:43.075Z,26.80
2022-08-29T16:13:46.466Z,26.78
2022-08-29T16:17:49.985Z,26.77
2022-08-29T16:21:53.322Z,26.76
2022-08-29T16:25:58.369Z,26.76
2022-08-29T16:30:02.051Z,26.77
2022-08-29T16:34:05.689Z,26.76
2022-08-29T16:38:09.211Z,26.74
2022-08-29T16:42:14.281Z,26.68
2022-08-29T16:46:18.477Z,26.62
2022-08-29T16:50:22.080Z,26.58
2022-08-29T16:54:25.350Z,26.53
2022-08-29T16:58:47.414Z,26.51
2022-08-29T17:02:53.957Z,26.45
2022-08-29T17:06:57.615Z,26.39
2022-08-29T17:10:59.944Z,26.35
2022-08-29T17:15:04.501Z,26.33
2022-08-29T17:19:08.957Z,26.31
2022-08-29T17:23:13.517Z,26.27
2022-08-29T17:27:21.258Z,26.23
2022-08-29T17:31:33.494Z,26.17
2022-08-29T17:35:42.553Z,26.12
2022-08-29T17:39:48.540Z,26.08
2022-08-29T17:43:52.809Z,26.02
2022-08-29T17:47:57.679Z,26.00
2022-08-29T17:52:00.997Z,25.96
2022-08-29T17:56:13.464Z,25.90
2022-08-29T18:00:17.554Z,25.83
2022-08-29T18:04:23.190Z,25.78
2022-08-29T18:08:26.554Z,25.72
2022-08-29T18:12:31.194Z,25.67
2022-08-29T18:16:38.119Z,25.64
2022-08-29T18:20:43.212Z,25.61
2022-08-29T18:24:48.147Z,25.54
2022-08-29T18:28:51.970Z,25.49
2022-08-29T18:32:55.788Z,25.43
2022-08-29T18:37:00.778Z,25.37
2022-08-29T18:41:04.276Z,25.29
2022-08-29T18:45:09.201Z,25.20
2022-08-29T18:49:12.497Z,25.11
2022-08-29T18:53:20.369Z,25.05
2022-08-29T18:57:23.430Z,24.98
2022-08-29T19:01:28.958Z,24.91
2022-08-29T19:05:35.009Z,24.84
2022-08-29T19:09:39.796Z,24.77
2022-08-29T19:13:43.397Z,24.72
2022-08-29T19:17:46.864Z,24.66
2022-08-29T19:21:52.458Z,24.62
2022-08-29T19:25:57.652Z,24.57
2022-08-29T19:30:05.431Z,24.52
2022-08-29T19:34:08.952Z,24.45
2022-08-29T19:38:12.483Z,24.39
2022-08-29T19:42:17.132Z,24.35
2022-08-29T19:46:23.911Z,24.26
2022-08-29T19:50:27.851Z,24.18
2022-08-29T19:54:30.931Z,24.09
2022-08-29T19:58:35.633Z,24.05
2022-08-29T20:02:39.038Z,24.01
2022-08-29T20:06:43.977Z,23.98
2022-08-29T20:10:49.629Z,23.94
2022-08-29T20:14:54.917Z,23.86
2022-08-29T20:18:58.276Z,23.81
2022-08-29T20:23:01.557Z,23.76
2022-08-29T20:27:05.497Z,23.72
2022-08-29T20:31:10.691Z,23.67
2022-08-29T20:35:34.285Z,23.64
2022-08-29T20:39:39.041Z,23.61
2022-08-29T20:43:42.483Z,23.55
2022-08-29T20:47:46.967Z,23.50
2022-08-29T20:51:51.278Z,23.45
2022-08-29T20:55:54.576Z,23.39
2022-08-29T21:00:02.141Z,23.37
2022-08-29T21:04:24.977Z,23.34
2022-08-29T21:08:28.251Z,23.25
2022-08-29T21:12:31.548Z,23.18
2022-08-29T21:16:36.485Z,23.12
2022-08-29T21:20:53.462Z,23.07
2022-08-29T21:24:57.595Z,22.99
2022-08-29T21:29:00.827Z,22.90
2022-08-29T21:33:04.363Z,22.84
2022-08-29T21:37:08.867Z,22.79
2022-08-29T21:41:13.275Z,22.73
2022-08-29T21:45:16.468Z,22.66
2022-08-29T21:49:21.813Z,22.61
2022-08-29T21:53:26.252Z,22.56
2022-08-29T21:57:46.776Z,22.52
2022-08-29T22:01:52.678Z,22.49
2022-08-29T22:05:58.243Z,22.45
2022-08-29T22:10:03.660Z,22.40
2022-08-29T22:14:07.773Z,22.33
2022-08-29T22:18:12.370Z,22.25
2022-08-29T22:22:15.674Z,22.20
2022-08-29T22:26:20.480Z,22.15
2022-08-29T22:30:23.794Z,22.11
2022-08-29T22:34:35.616Z,22.07
2022-08-29T22:38:38.852Z,22.03
2022-08-29T22:42:43.834Z,21.99
2022-08-29T22:46:47.137Z,21.95
2022-08-29T22:50:58.265Z,21.90
2022-08-29T22:55:01.731Z,21.88
2022-08-29T22:59:07.366Z,21.84
2022-08-29T23:03:11.125Z,21.80
2022-08-29T23:07:14.239Z,21.76
2022-08-29T23:11:17.382Z,21.71
2022-08-29T23:15:22.070Z,21.69
2022-08-29T23:19:25.135Z,21.66
2022-08-29T23:23:28.294Z,21.63
2022-08-29T23:27:33.890Z,21.58
2022-08-29T23:31:38.644Z,21.55
2022-08-29T23:35:41.798Z,21.51
2022-08-29T23:39:44.938Z,21.49
2022-08-29T23:43:47.969Z,21.47
2022-08-29T23:47:52.594Z,21.45
2022-08-29T23:51:55.600Z,21.42
2022-08-29T23:55:58.970Z,21.40
